Time;durP1;ratioP1;P1;durP2;ratioP2;P2;SDS_P1;SDS_P2;PMS_P1;PMS_P2;Temp;Humidity;BMP_temperature;BMP_pressure;BME280_temperature;BME280_humidity;BME280_pressure;Samples;Min_cycle;Max_cycle;Signal;HPM_P1;HPM_P2
2023/06/08 00:01:36;;;;;;;5.90;5.03;;;;;;;18.70;76.15;94908.19;5052911;28;20509;-78
2023/06/08 00:04:05;;;;;;;5.63;5.13;;;;;;;18.73;76.20;94896.34;5053374;28;20483;-77
2023/06/08 00:06:33;;;;;;;6.40;5.03;;;;;;;18.77;75.51;94902.97;5034329;28;20930;-78
2023/06/08 00:09:01;;;;;;;6.80;4.90;;;;;;;18.74;75.15;94896.19;5053137;28;20808;-78
2023/06/08 00:11:28;;;;;;;5.00;4.60;;;;;;;18.72;75.71;94900.84;5052960;28;20442;-77
2023/06/08 00:13:55;;;;;;;8.50;3.97;;;;;;;18.57;74.84;94902.63;5052841;28;20497;-78
2023/06/08 00:16:22;;;;;;;6.63;5.87;;;;;;;18.49;76.39;94900.84;5053101;28;20526;-78
2023/06/08 00:18:54;;;;;;;5.90;5.10;;;;;;;18.55;76.46;94900.16;5053031;28;20907;-77
2023/06/08 00:21:22;;;;;;;5.80;5.20;;;;;;;18.62;75.57;94902.09;5052927;28;20952;-78
2023/06/08 00:23:49;;;;;;;5.07;4.33;;;;;;;18.69;77.14;94900.38;5052415;28;20501;-78
2023/06/08 00:26:16;;;;;;;4.53;4.13;;;;;;;18.71;75.64;94906.34;5052574;28;20514;-77
2023/06/08 00:28:42;;;;;;;6.30;5.13;;;;;;;18.58;75.77;94898.97;5052790;28;20444;-77
2023/06/08 00:31:09;;;;;;;5.33;4.83;;;;;;;18.52;76.36;94908.47;5053053;28;20460;-77
2023/06/08 00:33:36;;;;;;;5.90;5.30;;;;;;;18.49;76.32;94910.63;5052690;28;20545;-78
2023/06/08 00:36:04;;;;;;;7.10;4.30;;;;;;;18.56;75.98;94908.94;5052568;28;20452;-78
2023/06/08 00:38:32;;;;;;;6.67;5.10;;;;;;;18.58;76.49;94909.59;5052563;28;20455;-78
2023/06/08 00:40:58;;;;;;;5.97;4.77;;;;;;;18.57;76.28;94905.28;5017843;28;20458;-77
2023/06/08 00:43:25;;;;;;;5.03;4.53;;;;;;;18.53;76.06;94910.13;5052457;28;20901;-78
2023/06/08 00:45:52;;;;;;;7.73;4.80;;;;;;;18.52;76.19;94905.00;5052651;28;20451;-78
2023/06/08 00:48:20;;;;;;;6.70;5.27;;;;;;;18.56;75.99;94903.63;5051621;28;20454;-77
2023/06/08 00:50:47;;;;;;;5.57;4.93;;;;;;;18.58;77.23;94905.09;5052711;28;20446;-77
2023/06/08 00:53:15;;;;;;;9.87;4.50;;;;;;;18.60;76.56;94904.09;5050314;28;20987;-77
2023/06/08 00:55:43;;;;;;;6.47;5.40;;;;;;;18.67;76.56;94899.75;5052522;28;20455;-77
2023/06/08 00:58:13;;;;;;;5.17;4.43;;;;;;;18.74;76.21;94905.97;5052838;28;20456;-78
2023/06/08 01:00:40;;;;;;;5.50;4.50;;;;;;;18.79;75.32;94900.94;5052582;28;20442;-77
2023/06/08 01:03:07;;;;;;;9.70;4.70;;;;;;;18.72;74.57;94905.34;5052795;28;20506;-77
2023/06/08 01:05:34;;;;;;;6.10;3.40;;;;;;;18.49;74.73;94898.19;5052443;28;20450;-77
2023/06/08 01:08:10;;;;;;;4.33;3.93;;;;;;;18.53;74.99;94896.03;5052553;28;20458;-77
2023/06/08 01:10:46;;;;;;;5.43;4.50;;;;;;;18.55;75.02;94902.81;5033992;28;20438;-77
2023/06/08 01:13:17;;;;;;;5.00;4.50;;;;;;;18.47;75.71;94897.53;5052430;28;20448;-77
2023/06/08 01:15:49;;;;;;;4.57;4.17;;;;;;;18.29;76.14;94899.69;5052294;28;20498;-78
2023/06/08 01:18:17;;;;;;;4.87;4.47;;;;;;;18.27;76.75;94899.84;5055091;28;21087;-77
2023/06/08 01:21:02;;;;;;;7.50;5.47;;;;;;;18.25;76.82;94903.69;5056484;28;20458;-77
2023/06/08 01:23:38;;;;;;;6.53;5.23;;;;;;;18.24;77.82;94902.88;5056122;28;20485;-78
2023/06/08 01:26:10;;;;;;;4.97;4.47;;;;;;;18.25;78.34;94898.38;5005647;28;20447;-78
2023/06/08 01:28:39;;;;;;;4.47;4.07;;;;;;;18.25;77.62;94898.38;5056167;28;20456;-77
2023/06/08 01:31:06;;;;;;;4.43;4.07;;;;;;;18.28;77.48;94890.06;5056084;28;20454;-78
2023/06/08 01:33:33;;;;;;;8.37;5.23;;;;;;;18.30;77.61;94896.03;5055851;28;20459;-77
2023/06/08 01:36:10;;;;;;;9.30;4.97;;;;;;;18.32;78.30;94896.66;5055826;28;20451;-78
2023/06/08 01:38:49;;;;;;;7.60;4.33;;;;;;;18.26;78.24;94892.06;5056122;28;20908;-78
2023/06/08 01:41:21;;;;;;;6.60;5.00;;;;;;;18.25;78.36;94888.59;5055789;28;20932;-78
2023/06/08 01:43:51;;;;;;;5.83;4.60;;;;;;;18.25;78.47;94885.94;5055815;28;20522;-78
2023/06/08 01:46:21;;;;;;;7.03;4.70;;;;;;;18.20;77.63;94876.81;5055610;28;20448;-78
2023/06/08 01:48:50;;;;;;;4.70;4.30;;;;;;;18.13;78.01;94889.16;5055383;28;20989;-79
2023/06/08 01:51:18;;;;;;;6.23;4.97;;;;;;;18.09;78.49;94893.16;5055914;28;20780;-78
2023/06/08 01:53:46;;;;;;;7.20;4.87;;;;;;;17.99;78.55;94887.28;5021049;28;20457;-77
2023/06/08 01:56:13;;;;;;;9.30;5.77;;;;;;;17.99;79.20;94890.75;5020313;28;20455;-77
2023/06/08 01:58:41;;;;;;;7.80;5.50;;;;;;;18.02;79.93;94886.91;5055860;28;20456;-78
2023/06/08 02:01:08;;;;;;;7.93;5.50;;;;;;;17.97;79.86;94884.78;5055290;28;20438;-78
2023/06/08 02:03:34;;;;;;;6.73;4.97;;;;;;;17.89;79.72;94877.69;5055432;28;20515;-77
2023/06/08 02:06:01;;;;;;;6.27;5.33;;;;;;;17.88;79.81;94880.50;5020643;28;20457;-78
2023/06/08 02:08:28;;;;;;;7.83;4.83;;;;;;;17.89;80.12;94883.00;5055425;28;20455;-78
2023/06/08 02:10:54;;;;;;;8.57;5.10;;;;;;;17.92;79.94;94885.28;5055389;28;20848;-77
2023/06/08 02:13:21;;;;;;;8.40;4.60;;;;;;;17.93;79.74;94881.66;5055329;28;20455;-79
2023/06/08 02:15:50;;;;;;;8.17;4.40;;;;;;;17.88;80.11;94883.16;5020442;28;20452;-77
2023/06/08 02:18:19;;;;;;;5.77;5.27;;;;;;;17.82;80.35;94882.03;5055407;28;20530;-77
2023/06/08 02:20:46;;;;;;;8.30;4.50;;;;;;;17.70;80.91;94878.13;5020552;28;20810;-78
2023/06/08 02:23:12;;;;;;;8.43;5.20;;;;;;;17.64;81.77;94881.47;5054871;28;20457;-77
2023/06/08 02:25:39;;;;;;;6.40;5.10;;;;;;;17.66;82.22;94879.47;5055013;28;20490;-78
2023/06/08 02:28:06;;;;;;;7.37;5.43;;;;;;;17.70;82.19;94878.13;5055173;28;20507;-78
2023/06/08 02:30:33;;;;;;;6.77;4.70;;;;;;;17.71;82.24;94877.13;5054769;28;21140;-77
2023/06/08 02:33:01;;;;;;;10.60;5.90;;;;;;;17.72;81.39;94870.00;5055001;28;20910;-77
2023/06/08 02:35:27;;;;;;;9.73;5.77;;;;;;;17.71;81.64;94874.47;5055055;28;20575;-77
2023/06/08 02:37:54;;;;;;;5.23;4.73;;;;;;;17.74;81.36;94873.31;5055440;28;20747;-77
2023/06/08 02:40:21;;;;;;;7.13;5.43;;;;;;;17.74;81.50;94866.16;5054723;28;20783;-78
2023/06/08 02:42:48;;;;;;;5.80;5.17;;;;;;;17.78;81.50;94870.13;5054561;28;20503;-78
2023/06/08 02:45:14;;;;;;;6.77;4.97;;;;;;;17.81;81.56;94871.59;5054563;28;20489;-77
2023/06/08 02:47:41;;;;;;;6.53;5.53;;;;;;;17.81;81.88;94875.06;5055165;28;20442;-77
2023/06/08 02:50:10;;;;;;;8.30;5.43;;;;;;;17.84;82.40;94872.06;5054585;28;20762;-78
2023/06/08 02:52:36;;;;;;;10.27;5.23;;;;;;;17.83;81.84;94880.22;5035946;28;20578;-77
2023/06/08 02:55:03;;;;;;;7.03;5.63;;;;;;;17.49;82.12;94875.22;5054570;28;21014;-78
2023/06/08 02:57:32;;;;;;;8.00;4.97;;;;;;;17.59;81.92;94875.81;5054918;28;20451;-78
2023/06/08 02:59:59;;;;;;;6.10;5.20;;;;;;;17.67;82.14;94883.78;5054329;28;20482;-77
2023/06/08 03:02:27;;;;;;;7.20;5.50;;;;;;;17.64;81.71;94876.97;5054261;28;20511;-78
2023/06/08 03:04:58;;;;;;;7.57;5.43;;;;;;;17.63;82.20;94877.13;5054303;28;20977;-78
2023/06/08 03:07:27;;;;;;;5.10;4.60;;;;;;;17.56;83.00;94877.00;5054438;28;20460;-77
2023/06/08 03:09:53;;;;;;;5.77;5.27;;;;;;;17.25;83.55;94879.59;5054019;28;20541;-77
2023/06/08 03:12:20;;;;;;;6.03;5.53;;;;;;;17.31;83.21;94880.75;5054414;28;20451;-78
2023/06/08 03:14:48;;;;;;;7.57;6.10;;;;;;;17.20;83.55;94879.31;5054008;28;20486;-77
2023/06/08 03:17:17;;;;;;;7.60;5.43;;;;;;;17.10;84.20;94873.38;5054021;28;20441;-77
2023/06/08 03:19:44;;;;;;;7.03;5.30;;;;;;;17.06;84.79;94881.81;5054294;28;20470;-77
2023/06/08 03:22:11;;;;;;;9.90;6.00;;;;;;;17.01;85.19;94879.69;5053541;28;20999;-78
2023/06/08 03:24:40;;;;;;;5.53;5.00;;;;;;;17.65;91.11;94881.28;5054067;28;21011;-78
2023/06/08 03:27:07;;;;;;;5.60;5.00;;;;;;;18.31;89.17;94884.38;5054165;28;20541;-78
2023/06/08 03:29:34;;;;;;;7.33;4.67;;;;;;;19.15;83.31;94882.50;5054169;28;20448;-78
2023/06/08 03:32:01;;;;;;;9.33;4.70;;;;;;;19.75;79.16;94884.97;5053285;28;21005;-77
2023/06/08 03:34:29;;;;;;;7.67;4.60;;;;;;;20.30;75.48;94885.38;5053510;28;20446;-78
2023/06/08 03:36:56;;;;;;;6.60;4.53;;;;;;;20.30;69.47;94891.53;5053728;28;20503;-77
2023/06/08 03:39:24;;;;;;;6.43;4.93;;;;;;;20.12;69.58;94893.78;5052957;28;20496;-77
2023/06/08 03:41:52;;;;;;;7.13;4.93;;;;;;;20.16;71.45;94889.72;5053363;28;20450;-78
2023/06/08 03:44:19;;;;;;;5.07;3.70;;;;;;;20.14;71.51;94891.75;5053395;28;20896;-77
2023/06/08 03:46:46;;;;;;;5.17;4.70;;;;;;;20.22;69.81;94888.16;5053553;28;20450;-77
2023/06/08 03:49:13;;;;;;;6.73;4.83;;;;;;;20.30;69.73;94896.03;5014803;28;20557;-77
2023/06/08 03:51:40;;;;;;;12.77;5.00;;;;;;;20.40;69.15;94894.72;5033384;28;20447;-78
2023/06/08 03:54:07;;;;;;;7.20;5.23;;;;;;;20.42;68.10;94899.88;5033042;28;20873;-77
2023/06/08 03:56:33;;;;;;;6.10;4.43;;;;;;;20.23;68.67;94898.59;5033547;28;20455;-77
2023/06/08 03:59:02;;;;;;;8.60;5.30;;;;;;;20.06;70.10;94900.69;5032917;28;20448;-77
2023/06/08 04:01:30;;;;;;;6.83;4.87;;;;;;;20.20;69.27;94909.66;5033170;28;20457;-77
2023/06/08 04:03:57;;;;;;;4.53;4.13;;;;;;;20.28;69.13;94906.88;5033154;28;20450;-77
2023/06/08 04:06:28;;;;;;;7.53;4.70;;;;;;;20.41;68.68;94900.88;5032782;28;20847;-78
2023/06/08 04:08:55;;;;;;;5.53;4.80;;;;;;;20.47;67.69;94904.63;5033233;28;20525;-77
2023/06/08 04:11:22;;;;;;;6.50;4.87;;;;;;;20.57;67.59;94902.50;5032895;28;20451;-77
2023/06/08 04:13:49;;;;;;;5.77;4.40;;;;;;;20.57;68.90;94900.66;5032908;28;20447;-78
2023/06/08 04:16:17;;;;;;;5.33;4.70;;;;;;;20.71;66.69;94898.91;5048013;28;20942;-78
2023/06/08 04:18:44;;;;;;;5.60;5.00;;;;;;;20.69;67.05;94903.59;5052633;28;20451;-78
2023/06/08 04:21:12;;;;;;;12.37;5.70;;;;;;;20.63;67.26;94901.72;5052894;28;20490;-77
2023/06/08 04:23:39;;;;;;;14.23;4.53;;;;;;;20.88;67.67;94902.13;5052997;28;20467;-77
2023/06/08 04:26:07;;;;;;;13.10;4.67;;;;;;;20.76;66.96;94901.81;5052483;28;20489;-78
2023/06/08 04:28:34;;;;;;;8.10;4.70;;;;;;;21.08;65.74;94902.28;5052771;28;20505;-77
2023/06/08 04:31:01;;;;;;;6.17;4.70;;;;;;;21.36;65.00;94905.78;5052265;28;20443;-77
2023/06/08 04:33:30;;;;;;;11.07;4.90;;;;;;;21.47;65.44;94909.78;5047811;28;20464;-78
2023/06/08 04:35:57;;;;;;;5.13;4.03;;;;;;;21.65;64.30;94907.38;5040161;28;20542;-77
2023/06/08 04:38:25;;;;;;;8.40;4.60;;;;;;;21.94;63.83;94911.63;5053033;28;20511;-78
2023/06/08 04:40:53;;;;;;;6.47;5.00;;;;;;;22.33;63.60;94910.16;5052699;28;20452;-79
2023/06/08 04:43:20;;;;;;;8.10;4.90;;;;;;;22.54;61.15;94908.13;5033591;28;20467;-77
2023/06/08 04:45:51;;;;;;;8.13;5.37;;;;;;;22.50;60.61;94914.09;5051111;28;20549;-77
2023/06/08 04:48:19;;;;;;;6.47;4.97;;;;;;;22.46;60.87;94907.50;5050458;28;20483;-77
2023/06/08 04:50:50;;;;;;;7.63;5.70;;;;;;;22.47;60.76;94907.31;5029065;28;20514;-78
2023/06/08 04:53:16;;;;;;;10.03;5.50;;;;;;;22.48;60.58;94908.13;5036727;28;20451;-78
2023/06/08 04:55:45;;;;;;;9.77;6.23;;;;;;;22.65;61.14;94903.22;5037133;28;20452;-78
2023/06/08 04:58:13;;;;;;;9.50;5.93;;;;;;;22.98;63.54;94898.75;5036561;28;20539;-77
2023/06/08 05:00:40;;;;;;;16.77;5.10;;;;;;;23.12;60.87;94902.22;5036683;28;20501;-77
2023/06/08 05:03:07;;;;;;;11.03;5.40;;;;;;;23.11;59.75;94903.25;5036506;28;20457;-79
2023/06/08 05:05:33;;;;;;;13.43;4.60;;;;;;;22.88;59.54;94897.53;5036355;28;20492;-77
2023/06/08 05:08:02;;;;;;;13.30;6.00;;;;;;;22.78;58.83;94906.72;5036539;28;20455;-77
2023/06/08 05:10:28;;;;;;;8.13;4.77;;;;;;;23.04;59.84;94903.28;5036891;28;20497;-77
2023/06/08 05:12:56;;;;;;;11.80;5.43;;;;;;;23.36;57.95;94901.59;5018078;28;20990;-78
2023/06/08 05:15:23;;;;;;;17.23;5.00;;;;;;;23.58;56.83;94906.75;5036738;28;20583;-77
2023/06/08 05:17:51;;;;;;;19.53;5.50;;;;;;;23.25;57.29;94904.91;5051439;28;20458;-77
2023/06/08 05:20:18;;;;;;;5.40;4.90;;;;;;;23.20;57.50;94904.72;5038725;28;20445;-77
2023/06/08 05:22:45;;;;;;;9.30;4.80;;;;;;;23.10;57.68;94905.13;5047011;28;20932;-78
2023/06/08 05:25:15;;;;;;;4.90;4.50;;;;;;;23.04;57.52;94911.31;5036267;28;20487;-79
2023/06/08 05:27:41;;;;;;;8.40;5.37;;;;;;;23.03;58.19;94911.50;5040006;28;20466;-79
2023/06/08 05:30:09;;;;;;;7.93;4.73;;;;;;;23.13;57.39;94903.88;5056016;28;20457;-77
2023/06/08 05:32:36;;;;;;;20.20;5.50;;;;;;;23.30;56.35;94907.78;5056161;28;20911;-83
2023/06/08 05:35:03;;;;;;;12.50;4.67;;;;;;;23.72;58.11;94911.06;5048714;28;20445;-77
2023/06/08 05:37:30;;;;;;;11.40;5.17;;;;;;;23.87;55.09;94908.94;5050640;28;20459;-78
2023/06/08 05:39:57;;;;;;;12.10;5.30;;;;;;;23.94;54.31;94909.72;5044496;28;20452;-78
2023/06/08 05:42:25;;;;;;;8.93;5.40;;;;;;;23.95;54.56;94911.38;5054945;28;20495;-79
2023/06/08 05:44:51;;;;;;;8.57;4.63;;;;;;;24.13;54.55;94915.22;5054354;28;21236;-78
2023/06/08 05:47:18;;;;;;;4.60;4.30;;;;;;;24.07;53.77;94914.22;5054467;28;20510;-78
2023/06/08 05:49:45;;;;;;;8.80;5.50;;;;;;;24.18;54.62;94912.72;5054576;28;20457;-78
2023/06/08 05:52:12;;;;;;;12.23;5.80;;;;;;;24.23;55.10;94908.34;5054723;28;20445;-79
2023/06/08 05:54:39;;;;;;;7.90;4.90;;;;;;;24.18;55.60;94905.50;5054684;28;20449;-78
2023/06/08 05:57:06;;;;;;;6.20;4.47;;;;;;;24.24;56.58;94909.19;5054494;28;21212;-78
2023/06/08 05:59:34;;;;;;;8.40;5.33;;;;;;;24.38;54.22;94902.75;5035840;28;20446;-78
2023/06/08 06:02:01;;;;;;;5.03;4.63;;;;;;;24.36;53.02;94899.47;5054392;28;20453;-78
2023/06/08 06:04:28;;;;;;;8.67;4.70;;;;;;;24.52;53.72;94904.31;5053601;28;20449;-78
2023/06/08 06:06:54;;;;;;;4.93;4.53;;;;;;;24.71;52.71;94898.00;5054005;28;20485;-79
2023/06/08 06:09:21;;;;;;;9.00;4.20;;;;;;;24.67;52.81;94899.47;5054388;28;20446;-78
2023/06/08 06:11:48;;;;;;;5.27;4.30;;;;;;;24.92;53.14;94901.38;5054188;28;20547;-78
2023/06/08 06:14:17;;;;;;;5.57;4.40;;;;;;;24.77;53.36;94899.00;5018779;28;20449;-78
2023/06/08 06:16:45;;;;;;;10.50;5.00;;;;;;;24.34;53.48;94909.59;5054435;28;20456;-78
2023/06/08 06:19:12;;;;;;;6.83;4.83;;;;;;;24.43;53.11;94896.75;5054368;28;20448;-78
2023/06/08 06:21:38;;;;;;;8.47;4.63;;;;;;;24.81;53.91;94900.19;5054217;28;20841;-79
2023/06/08 06:24:06;;;;;;;9.67;4.37;;;;;;;24.90;52.89;94903.47;5054087;28;20462;-78
2023/06/08 06:26:33;;;;;;;4.77;4.30;;;;;;;24.90;51.62;94906.13;5053808;28;20527;-78
2023/06/08 06:28:59;;;;;;;6.17;4.53;;;;;;;24.90;51.74;94893.53;5053646;28;20515;-78
2023/06/08 06:31:27;;;;;;;7.47;4.53;;;;;;;25.21;51.30;94883.81;5054045;28;20462;-79
2023/06/08 06:33:55;;;;;;;5.87;4.17;;;;;;;25.64;50.97;94884.59;5053963;28;20503;-78
2023/06/08 06:36:23;;;;;;;5.10;4.60;;;;;;;26.02;50.78;94890.81;5054125;28;20457;-78
2023/06/08 06:38:50;;;;;;;6.50;4.60;;;;;;;26.04;50.25;94888.75;5053629;28;20476;-78
2023/06/08 06:41:16;;;;;;;6.23;4.57;;;;;;;26.39;49.41;94888.94;5054156;28;20864;-78
2023/06/08 06:43:43;;;;;;;7.23;4.43;;;;;;;26.61;50.03;94881.19;5054363;28;20477;-78
2023/06/08 06:46:12;;;;;;;6.80;4.00;;;;;;;26.59;47.61;94885.97;5018417;28;20844;-79
2023/06/08 06:48:39;;;;;;;10.30;4.20;;;;;;;26.62;47.43;94880.97;5053660;28;20457;-78
2023/06/08 06:51:07;;;;;;;5.10;4.40;;;;;;;26.75;48.27;94874.53;5053626;28;20458;-79
2023/06/08 06:53:33;;;;;;;5.80;3.73;;;;;;;26.42;47.94;94875.84;5053821;28;20445;-78
2023/06/08 06:56:00;;;;;;;11.67;4.70;;;;;;;26.69;48.81;94864.69;5053272;28;20445;-78
2023/06/08 06:58:27;;;;;;;7.53;5.27;;;;;;;27.03;47.93;94873.94;5018332;28;20504;-78
2023/06/08 07:00:55;;;;;;;6.97;3.93;;;;;;;26.94;47.85;94865.34;5053428;28;20449;-78
2023/06/08 07:03:23;;;;;;;5.63;4.60;;;;;;;26.69;48.39;94862.00;5053610;28;20453;-78
2023/06/08 07:05:51;;;;;;;9.63;4.53;;;;;;;26.53;48.86;94864.28;5053101;28;20494;-78
2023/06/08 07:08:19;;;;;;;11.07;5.00;;;;;;;26.52;49.51;94859.97;5053164;28;20453;-79
2023/06/08 07:10:46;;;;;;;7.03;4.70;;;;;;;26.72;48.50;94856.16;5034573;28;20887;-78
2023/06/08 07:13:12;;;;;;;4.83;4.40;;;;;;;26.72;48.65;94853.47;5053239;28;20932;-78
2023/06/08 07:15:41;;;;;;;6.60;4.53;;;;;;;26.95;49.37;94858.09;5017148;28;20450;-78
2023/06/08 07:18:08;;;;;;;6.33;4.70;;;;;;;27.12;50.08;94849.09;5018594;28;20533;-79
2023/06/08 07:20:35;;;;;;;5.43;4.93;;;;;;;27.28;47.45;94854.84;5053225;28;20442;-78
2023/06/08 07:23:02;;;;;;;8.50;4.70;;;;;;;27.39;47.13;94849.44;5052970;28;20446;-78
2023/06/08 07:25:30;;;;;;;9.33;4.53;;;;;;;27.62;47.42;94843.25;5034145;28;20494;-78
2023/06/08 07:27:57;;;;;;;11.40;4.00;;;;;;;28.00;46.77;94849.97;5052705;28;20445;-78
2023/06/08 07:30:24;;;;;;;7.80;4.50;;;;;;;28.23;47.08;94854.47;5053415;28;20437;-78
2023/06/08 07:32:51;;;;;;;10.37;4.20;;;;;;;28.06;46.20;94851.72;5053003;28;20950;-77
2023/06/08 07:35:18;;;;;;;6.33;4.70;;;;;;;27.89;45.39;94854.34;5052843;28;20814;-78
2023/06/08 07:37:45;;;;;;;8.50;5.80;;;;;;;27.90;45.13;94841.69;5053122;28;20519;-78
2023/06/08 07:40:13;;;;;;;4.63;4.20;;;;;;;27.61;45.99;94851.56;5052989;28;20477;-77
2023/06/08 07:42:42;;;;;;;4.73;4.20;;;;;;;27.37;46.68;94840.78;5052591;28;20449;-78
2023/06/08 07:45:11;;;;;;;6.40;4.60;;;;;;;27.34;47.42;94837.75;5052356;28;20477;-78
2023/06/08 07:47:38;;;;;;;7.10;4.40;;;;;;;27.29;47.74;94837.63;5052596;28;20446;-78
2023/06/08 07:50:06;;;;;;;4.90;3.83;;;;;;;27.30;47.20;94840.09;5052647;28;20450;-78
2023/06/08 07:52:33;;;;;;;5.43;4.80;;;;;;;27.07;48.15;94840.09;5052877;28;20529;-78
2023/06/08 07:54:59;;;;;;;8.10;5.10;;;;;;;27.11;48.67;94831.28;5052703;28;20449;-79
2023/06/08 07:57:26;;;;;;;8.13;4.20;;;;;;;27.36;48.61;94830.25;5052542;28;20509;-79
2023/06/08 07:59:54;;;;;;;13.53;8.43;;;;;;;27.68;49.15;94828.00;5052452;28;20511;-79
2023/06/08 08:02:21;;;;;;;5.10;4.37;;;;;;;27.68;49.06;94831.50;5052223;28;20519;-79
2023/06/08 08:04:48;;;;;;;11.10;5.20;;;;;;;27.07;48.09;94838.22;5051917;28;20453;-79
2023/06/08 08:07:15;;;;;;;13.53;6.77;;;;;;;26.92;49.85;94837.00;5052165;28;20562;-79
2023/06/08 08:09:42;;;;;;;7.50;4.43;;;;;;;27.11;48.51;94825.91;5052541;28;20453;-79
2023/06/08 08:12:09;;;;;;;4.53;4.03;;;;;;;27.21;49.53;94829.91;5052159;28;20446;-79
2023/06/08 08:14:36;;;;;;;5.00;4.60;;;;;;;26.93;48.83;94822.50;5017237;28;20442;-78
2023/06/08 08:17:05;;;;;;;5.63;4.30;;;;;;;25.87;50.26;94827.50;5051997;28;20453;-78
2023/06/08 08:19:32;;;;;;;5.20;4.70;;;;;;;25.80;52.02;94832.16;5016987;28;20438;-79
2023/06/08 08:21:59;;;;;;;5.80;4.57;;;;;;;26.08;51.43;94830.78;5052426;28;21392;-79
2023/06/08 08:24:25;;;;;;;7.80;5.07;;;;;;;26.41;50.82;94828.47;5052309;28;20485;-78
2023/06/08 08:26:55;;;;;;;5.13;4.73;;;;;;;26.28;52.19;94825.09;5051988;28;20485;-78
2023/06/08 08:29:22;;;;;;;10.13;4.70;;;;;;;26.38;51.38;94828.09;5052156;28;20459;-79
2023/06/08 08:31:48;;;;;;;4.73;4.33;;;;;;;26.58;50.69;94830.47;5051873;28;20504;-79
2023/06/08 08:34:17;;;;;;;14.20;6.47;;;;;;;26.64;50.81;94829.59;5052176;28;20450;-79
2023/06/08 08:36:43;;;;;;;7.43;4.40;;;;;;;26.40;49.78;94821.44;5051923;28;20457;-80
2023/06/08 08:39:11;;;;;;;6.10;5.57;;;;;;;26.10;51.42;94817.91;5052091;28;20446;-78
2023/06/08 08:41:41;;;;;;;4.60;4.20;;;;;;;26.59;51.97;94816.78;5052306;28;20438;-78
2023/06/08 08:44:10;;;;;;;9.93;4.47;;;;;;;26.83;51.31;94817.66;5051914;28;20472;-79
2023/06/08 08:46:40;;;;;;;7.53;4.47;;;;;;;26.89;50.13;94816.75;5051634;28;20484;-78
2023/06/08 08:49:15;;;;;;;4.73;4.20;;;;;;;26.98;49.56;94818.03;5051662;28;20533;-79
2023/06/08 08:51:48;;;;;;;4.83;4.33;;;;;;;26.80;49.27;94820.81;5051850;28;20449;-78
2023/06/08 08:54:17;;;;;;;4.87;4.40;;;;;;;26.90;49.88;94818.38;5051710;28;20446;-79
2023/06/08 08:56:44;;;;;;;5.00;4.07;;;;;;;26.88;48.28;94814.25;5051634;28;20963;-78
2023/06/08 08:59:11;;;;;;;13.00;5.17;;;;;;;26.81;50.48;94814.38;5051595;28;20450;-79
2023/06/08 09:01:39;;;;;;;5.40;4.40;;;;;;;26.24;50.00;94809.41;5051666;28;20483;-79
2023/06/08 09:04:06;;;;;;;5.17;4.37;;;;;;;26.38;51.19;94804.72;5051845;28;20865;-79
2023/06/08 09:06:33;;;;;;;4.70;4.30;;;;;;;26.58;51.32;94808.94;5051616;28;20818;-79
2023/06/08 09:09:03;;;;;;;7.13;5.20;;;;;;;26.30;51.49;94796.91;5051441;28;20437;-78
2023/06/08 09:11:30;;;;;;;4.93;4.20;;;;;;;25.74;52.45;94806.19;5051321;28;20440;-79
2023/06/08 09:14:17;;;;;;;5.77;5.17;;;;;;;25.61;52.79;94790.97;5051486;28;20445;-79
2023/06/08 09:16:45;;;;;;;4.93;4.43;;;;;;;25.92;52.66;94800.75;4989822;28;20452;-79
2023/06/08 09:19:12;;;;;;;5.67;4.17;;;;;;;25.97;52.81;94802.75;4989905;28;20592;-78
2023/06/08 09:21:40;;;;;;;8.50;5.00;;;;;;;26.19;53.67;94795.84;4989931;28;20444;-79
2023/06/08 09:24:12;;;;;;;7.53;5.20;;;;;;;26.30;53.19;94804.97;4989838;28;20486;-79
2023/06/08 09:26:40;;;;;;;10.63;4.57;;;;;;;26.27;52.51;94791.16;4989915;28;20572;-78
2023/06/08 09:29:07;;;;;;;6.00;5.30;;;;;;;26.06;49.83;94801.41;4989668;28;20452;-78
2023/06/08 09:31:34;;;;;;;5.00;4.50;;;;;;;25.97;52.76;94796.56;4989726;28;20455;-79
2023/06/08 09:34:09;;;;;;;5.67;4.63;;;;;;;26.07;52.11;94796.84;4989932;28;20448;-79
2023/06/08 09:36:37;;;;;;;8.40;5.40;;;;;;;26.13;52.69;94786.00;4989663;28;20488;-78
2023/06/08 09:39:05;;;;;;;4.80;4.40;;;;;;;26.13;53.64;94782.50;4991973;28;20452;-78
2023/06/08 09:41:34;;;;;;;8.17;5.40;;;;;;;26.34;53.52;94781.19;4993400;28;20483;-79
2023/06/08 09:44:01;;;;;;;5.40;5.00;;;;;;;26.36;53.20;94779.09;4993162;28;20480;-79
2023/06/08 09:46:36;;;;;;;5.10;4.67;;;;;;;26.37;55.01;94781.53;4993336;28;20614;-79
2023/06/08 09:49:07;;;;;;;5.57;5.07;;;;;;;26.30;53.28;94778.06;4993073;28;20444;-79
2023/06/08 09:51:36;;;;;;;4.83;4.27;;;;;;;26.35;52.26;94778.25;4993203;28;20897;-79
2023/06/08 09:54:03;;;;;;;8.63;4.60;;;;;;;26.38;53.17;94769.72;5031713;28;20529;-78
2023/06/08 09:56:31;;;;;;;5.37;4.80;;;;;;;26.03;51.79;94769.59;5054790;28;20445;-78
2023/06/08 09:59:03;;;;;;;7.00;4.97;;;;;;;26.13;50.86;94767.16;5054593;28;20454;-78
2023/06/08 10:01:36;;;;;;;5.13;4.13;;;;;;;26.26;50.91;94768.81;5054352;28;20450;-77
2023/06/08 10:04:10;;;;;;;5.57;5.07;;;;;;;26.35;53.55;94764.81;5054444;28;20820;-78
2023/06/08 10:06:38;;;;;;;8.83;4.23;;;;;;;26.15;51.33;94764.25;5054354;28;20485;-77
2023/06/08 10:09:11;;;;;;;5.03;4.63;;;;;;;26.27;51.41;94754.31;5054384;28;20441;-77
2023/06/08 10:11:39;;;;;;;5.83;4.67;;;;;;;26.29;49.95;94757.59;5054242;28;20441;-77
2023/06/08 10:14:09;;;;;;;9.90;4.40;;;;;;;26.39;52.33;94757.91;5054436;28;20468;-77
2023/06/08 10:16:37;;;;;;;8.80;4.57;;;;;;;26.34;50.91;94751.59;5035662;28;20438;-77
2023/06/08 10:19:05;;;;;;;5.10;4.40;;;;;;;26.59;51.27;94754.88;5054689;28;20445;-78
2023/06/08 10:21:31;;;;;;;6.30;4.10;;;;;;;26.86;51.84;94739.09;5054348;28;20453;-78
2023/06/08 10:24:00;;;;;;;5.67;4.30;;;;;;;26.98;48.71;94737.22;5054256;28;20453;-77
2023/06/08 10:26:29;;;;;;;4.80;4.23;;;;;;;27.04;49.27;94727.41;5019256;28;20508;-78
2023/06/08 10:29:10;;;;;;;5.93;4.43;;;;;;;27.16;49.60;94734.41;5054540;28;20456;-77
2023/06/08 10:31:39;;;;;;;5.10;4.60;;;;;;;27.27;49.82;94731.97;5054136;28;20503;-78
2023/06/08 10:34:10;;;;;;;5.47;4.30;;;;;;;26.90;48.88;94726.81;5054009;28;20442;-78
2023/06/08 10:36:39;;;;;;;5.60;4.50;;;;;;;26.68;49.30;94720.38;5054050;28;20469;-78
2023/06/08 10:39:12;;;;;;;9.87;4.80;;;;;;;26.82;48.85;94722.59;5053936;28;20442;-77
2023/06/08 10:41:39;;;;;;;5.20;4.80;;;;;;;26.96;48.62;94717.78;5053847;28;20445;-78
2023/06/08 10:44:24;;;;;;;10.90;5.30;;;;;;;27.19;50.36;94713.47;5053731;28;20548;-78
2023/06/08 10:46:56;;;;;;;5.67;5.07;;;;;;;27.31;48.29;94719.66;5053776;28;20659;-78
2023/06/08 10:49:23;;;;;;;4.10;3.80;;;;;;;26.90;46.05;94710.66;5054061;28;20529;-78
2023/06/08 10:51:55;;;;;;;4.80;4.40;;;;;;;26.71;47.18;94706.44;5053801;28;20503;-78
2023/06/08 10:54:23;;;;;;;6.03;3.83;;;;;;;26.72;49.37;94702.69;5053648;28;21015;-77
2023/06/08 10:56:52;;;;;;;4.17;3.83;;;;;;;26.82;47.18;94700.22;5053554;28;20805;-77
2023/06/08 10:59:29;;;;;;;5.70;4.13;;;;;;;26.88;46.94;94693.06;5053523;28;20445;-77
2023/06/08 11:01:57;;;;;;;5.10;4.60;;;;;;;27.08;47.70;94694.38;5034857;28;21052;-78
2023/06/08 11:04:28;;;;;;;5.67;4.90;;;;;;;27.02;47.96;94692.63;5054817;28;20441;-78
2023/06/08 11:06:55;;;;;;;4.50;4.10;;;;;;;27.10;46.81;94689.56;5054848;28;20585;-77
2023/06/08 11:09:22;;;;;;;3.80;3.50;;;;;;;27.14;46.70;94682.66;5019266;28;20468;-78
2023/06/08 11:11:52;;;;;;;3.77;3.47;;;;;;;27.17;43.71;94684.88;5054298;28;20449;-78
2023/06/08 11:14:22;;;;;;;5.00;3.70;;;;;;;27.06;44.71;94684.91;5053999;28;20446;-77
2023/06/08 11:16:51;;;;;;;4.10;3.80;;;;;;;27.09;44.42;94682.53;5054726;28;20442;-78
2023/06/08 11:19:19;;;;;;;4.57;3.67;;;;;;;26.93;43.55;94671.66;5054629;28;20821;-78
2023/06/08 11:21:46;;;;;;;4.40;3.60;;;;;;;27.14;44.10;94671.06;5054360;28;20875;-78
2023/06/08 11:24:14;;;;;;;7.17;4.03;;;;;;;27.23;43.86;94660.75;5054700;28;20442;-78
2023/06/08 11:26:41;;;;;;;4.20;3.80;;;;;;;27.15;44.94;94660.03;5054482;28;20576;-78
2023/06/08 11:29:08;;;;;;;3.13;2.83;;;;;;;27.22;44.50;94656.41;5054407;28;20498;-78
2023/06/08 11:31:40;;;;;;;4.50;3.57;;;;;;;27.30;44.25;94661.41;5054323;28;20442;-78
2023/06/08 11:34:11;;;;;;;4.83;3.93;;;;;;;27.41;44.90;94657.84;5054202;28;20450;-78
2023/06/08 11:36:39;;;;;;;6.50;4.10;;;;;;;27.54;44.32;94648.69;5053481;28;20441;-78